sensor_id;sensor_type;location;lat;lon;timestamp;P1;durP1;ratioP1;P2;durP2;ratioP2
10721;SDS011;5412;59.450;18.124;2022-10-17T00:00:14;4.32;;;0.90;;
10721;SDS011;5412;59.450;18.124;2022-10-17T00:02:39;5.63;;;1.30;;
10721;SDS011;5412;59.450;18.124;2022-10-17T00:05:05;3.78;;;0.88;;
10721;SDS011;5412;59.450;18.124;2022-10-17T00:07:31;3.22;;;1.00;;
10721;SDS011;5412;59.450;18.124;2022-10-17T00:09:56;6.05;;;1.40;;
10721;SDS011;5412;59.450;18.124;2022-10-17T00:12:22;4.70;;;1.65;;
10721;SDS011;5412;59.450;18.124;2022-10-17T00:14:48;5.45;;;1.20;;
10721;SDS011;5412;59.450;18.124;2022-10-17T00:17:13;3.70;;;1.10;;
10721;SDS011;5412;59.450;18.124;2022-10-17T00:19:39;6.00;;;1.30;;
10721;SDS011;5412;59.450;18.124;2022-10-17T00:22:05;9.55;;;1.10;;
10721;SDS011;5412;59.450;18.124;2022-10-17T00:24:31;8.07;;;1.55;;
10721;SDS011;5412;59.450;18.124;2022-10-17T00:26:57;5.20;;;1.00;;
10721;SDS011;5412;59.450;18.124;2022-10-17T00:29:22;2.80;;;0.98;;
10721;SDS011;5412;59.450;18.124;2022-10-17T00:31:48;4.50;;;1.58;;
10721;SDS011;5412;59.450;18.124;2022-10-17T00:34:14;3.85;;;1.05;;
10721;SDS011;5412;59.450;18.124;2022-10-17T00:36:39;4.10;;;1.20;;
10721;SDS011;5412;59.450;18.124;2022-10-17T00:39:05;5.65;;;1.15;;
10721;SDS011;5412;59.450;18.124;2022-10-17T00:41:32;0.95;;;0.80;;
10721;SDS011;5412;59.450;18.124;2022-10-17T00:46:37;4.75;;;1.23;;
10721;SDS011;5412;59.450;18.124;2022-10-17T00:49:04;3.17;;;1.02;;
10721;SDS011;5412;59.450;18.124;2022-10-17T00:51:33;5.32;;;1.50;;
10721;SDS011;5412;59.450;18.124;2022-10-17T00:54:06;2.13;;;0.88;;
10721;SDS011;5412;59.450;18.124;2022-10-17T00:56:33;5.55;;;1.08;;
10721;SDS011;5412;59.450;18.124;2022-10-17T00:58:59;9.07;;;1.50;;
10721;SDS011;5412;59.450;18.124;2022-10-17T01:01:26;9.43;;;1.30;;
10721;SDS011;5412;59.450;18.124;2022-10-17T01:03:51;5.75;;;1.10;;
10721;SDS011;5412;59.450;18.124;2022-10-17T01:06:17;4.60;;;1.08;;
10721;SDS011;5412;59.450;18.124;2022-10-17T01:08:43;7.65;;;1.15;;
10721;SDS011;5412;59.450;18.124;2022-10-17T01:11:17;4.15;;;1.00;;
10721;SDS011;5412;59.450;18.124;2022-10-17T01:13:51;6.32;;;1.30;;
10721;SDS011;5412;59.450;18.124;2022-10-17T01:22:25;5.05;;;1.38;;
10721;SDS011;5412;59.450;18.124;2022-10-17T01:35:40;7.90;;;1.35;;
10721;SDS011;5412;59.450;18.124;2022-10-17T01:38:19;12.30;;;1.58;;
10721;SDS011;5412;59.450;18.124;2022-10-17T01:40:50;5.32;;;1.30;;
10721;SDS011;5412;59.450;18.124;2022-10-17T01:45:59;4.78;;;1.30;;
10721;SDS011;5412;59.450;18.124;2022-10-17T01:48:31;7.55;;;1.73;;
10721;SDS011;5412;59.450;18.124;2022-10-17T01:51:00;11.57;;;1.98;;
10721;SDS011;5412;59.450;18.124;2022-10-17T01:53:35;14.10;;;1.95;;
10721;SDS011;5412;59.450;18.124;2022-10-17T01:56:05;5.70;;;1.60;;
10721;SDS011;5412;59.450;18.124;2022-10-17T01:58:36;5.72;;;1.35;;
10721;SDS011;5412;59.450;18.124;2022-10-17T02:01:06;6.57;;;1.27;;
10721;SDS011;5412;59.450;18.124;2022-10-17T02:03:35;6.55;;;1.35;;
10721;SDS011;5412;59.450;18.124;2022-10-17T02:06:02;6.97;;;1.13;;
10721;SDS011;5412;59.450;18.124;2022-10-17T02:08:47;5.10;;;1.00;;
10721;SDS011;5412;59.450;18.124;2022-10-17T02:21:32;4.90;;;1.63;;
10721;SDS011;5412;59.450;18.124;2022-10-17T02:24:10;6.18;;;1.50;;
10721;SDS011;5412;59.450;18.124;2022-10-17T02:27:02;4.20;;;1.05;;
10721;SDS011;5412;59.450;18.124;2022-10-17T02:29:36;7.78;;;1.20;;
10721;SDS011;5412;59.450;18.124;2022-10-17T02:32:25;3.88;;;1.17;;
10721;SDS011;5412;59.450;18.124;2022-10-17T02:34:56;3.63;;;1.23;;
10721;SDS011;5412;59.450;18.124;2022-10-17T02:37:26;8.75;;;1.30;;
10721;SDS011;5412;59.450;18.124;2022-10-17T02:39:54;4.82;;;1.20;;
10721;SDS011;5412;59.450;18.124;2022-10-17T02:42:23;8.27;;;1.40;;
10721;SDS011;5412;59.450;18.124;2022-10-17T02:44:51;3.05;;;1.00;;
10721;SDS011;5412;59.450;18.124;2022-10-17T02:49:46;5.68;;;1.15;;
10721;SDS011;5412;59.450;18.124;2022-10-17T02:52:24;6.30;;;1.00;;
10721;SDS011;5412;59.450;18.124;2022-10-17T02:55:11;5.20;;;0.90;;
10721;SDS011;5412;59.450;18.124;2022-10-17T02:57:59;4.95;;;0.90;;
10721;SDS011;5412;59.450;18.124;2022-10-17T03:00:30;4.95;;;1.13;;
10721;SDS011;5412;59.450;18.124;2022-10-17T03:02:57;6.72;;;1.15;;
10721;SDS011;5412;59.450;18.124;2022-10-17T03:05:27;5.20;;;1.10;;
10721;SDS011;5412;59.450;18.124;2022-10-17T03:07:54;3.67;;;1.65;;
10721;SDS011;5412;59.450;18.124;2022-10-17T03:10:21;3.50;;;0.90;;
10721;SDS011;5412;59.450;18.124;2022-10-17T03:12:46;2.47;;;0.90;;
10721;SDS011;5412;59.450;18.124;2022-10-17T03:15:13;5.97;;;1.00;;
10721;SDS011;5412;59.450;18.124;2022-10-17T03:17:38;6.68;;;1.58;;
10721;SDS011;5412;59.450;18.124;2022-10-17T03:20:05;8.38;;;1.08;;
10721;SDS011;5412;59.450;18.124;2022-10-17T03:22:31;5.72;;;1.10;;
10721;SDS011;5412;59.450;18.124;2022-10-17T03:24:57;3.45;;;1.40;;
10721;SDS011;5412;59.450;18.124;2022-10-17T03:27:23;4.68;;;1.20;;
10721;SDS011;5412;59.450;18.124;2022-10-17T03:29:49;7.43;;;1.60;;
10721;SDS011;5412;59.450;18.124;2022-10-17T03:32:15;5.00;;;0.90;;
10721;SDS011;5412;59.450;18.124;2022-10-17T03:34:40;5.53;;;1.23;;
10721;SDS011;5412;59.450;18.124;2022-10-17T03:37:06;5.10;;;1.00;;
10721;SDS011;5412;59.450;18.124;2022-10-17T03:39:32;7.00;;;1.15;;
10721;SDS011;5412;59.450;18.124;2022-10-17T03:41:58;9.07;;;1.23;;
10721;SDS011;5412;59.450;18.124;2022-10-17T03:44:23;4.85;;;1.10;;
10721;SDS011;5412;59.450;18.124;2022-10-17T03:46:49;3.33;;;0.95;;
10721;SDS011;5412;59.450;18.124;2022-10-17T03:49:14;4.95;;;1.30;;
10721;SDS011;5412;59.450;18.124;2022-10-17T03:51:40;2.92;;;1.30;;
10721;SDS011;5412;59.450;18.124;2022-10-17T03:54:06;4.78;;;1.40;;
10721;SDS011;5412;59.450;18.124;2022-10-17T03:56:31;8.07;;;1.48;;
10721;SDS011;5412;59.450;18.124;2022-10-17T03:58:57;5.65;;;1.20;;
10721;SDS011;5412;59.450;18.124;2022-10-17T04:01:23;8.18;;;0.90;;
10721;SDS011;5412;59.450;18.124;2022-10-17T04:03:49;5.95;;;1.13;;
10721;SDS011;5412;59.450;18.124;2022-10-17T04:06:16;6.55;;;1.27;;
10721;SDS011;5412;59.450;18.124;2022-10-17T04:08:43;5.80;;;1.10;;
10721;SDS011;5412;59.450;18.124;2022-10-17T04:11:09;6.40;;;1.00;;
10721;SDS011;5412;59.450;18.124;2022-10-17T04:13:38;3.92;;;1.30;;
10721;SDS011;5412;59.450;18.124;2022-10-17T04:16:05;5.22;;;1.13;;
10721;SDS011;5412;59.450;18.124;2022-10-17T04:18:34;4.20;;;0.85;;
10721;SDS011;5412;59.450;18.124;2022-10-17T04:21:00;6.55;;;1.38;;
10721;SDS011;5412;59.450;18.124;2022-10-17T04:23:27;3.83;;;0.77;;
10721;SDS011;5412;59.450;18.124;2022-10-17T04:25:56;4.05;;;0.93;;
10721;SDS011;5412;59.450;18.124;2022-10-17T04:28:23;4.68;;;1.23;;
10721;SDS011;5412;59.450;18.124;2022-10-17T04:33:22;5.00;;;1.45;;
10721;SDS011;5412;59.450;18.124;2022-10-17T04:35:55;4.53;;;1.17;;
10721;SDS011;5412;59.450;18.124;2022-10-17T04:38:21;3.40;;;1.00;;
10721;SDS011;5412;59.450;18.124;2022-10-17T04:40:47;6.18;;;1.20;;
10721;SDS011;5412;59.450;18.124;2022-10-17T04:43:13;6.38;;;0.88;;
10721;SDS011;5412;59.450;18.124;2022-10-17T04:45:39;6.13;;;1.25;;
10721;SDS011;5412;59.450;18.124;2022-10-17T04:48:07;3.65;;;1.02;;
10721;SDS011;5412;59.450;18.124;2022-10-17T04:50:33;6.72;;;1.17;;
10721;SDS011;5412;59.450;18.124;2022-10-17T04:52:58;7.20;;;1.50;;
10721;SDS011;5412;59.450;18.124;2022-10-17T04:55:30;6.28;;;1.25;;
10721;SDS011;5412;59.450;18.124;2022-10-17T04:57:55;3.20;;;0.90;;
10721;SDS011;5412;59.450;18.124;2022-10-17T05:00:21;9.65;;;1.65;;
10721;SDS011;5412;59.450;18.124;2022-10-17T05:02:47;2.20;;;1.00;;
10721;SDS011;5412;59.450;18.124;2022-10-17T05:05:12;3.83;;;1.25;;
10721;SDS011;5412;59.450;18.124;2022-10-17T05:07:39;3.17;;;1.38;;
10721;SDS011;5412;59.450;18.124;2022-10-17T05:10:05;4.45;;;1.20;;
10721;SDS011;5412;59.450;18.124;2022-10-17T05:12:31;10.13;;;1.30;;
10721;SDS011;5412;59.450;18.124;2022-10-17T05:14:59;1.90;;;1.20;;
10721;SDS011;5412;59.450;18.124;2022-10-17T05:17:25;5.53;;;1.35;;
10721;SDS011;5412;59.450;18.124;2022-10-17T05:19:50;4.00;;;1.10;;
10721;SDS011;5412;59.450;18.124;2022-10-17T05:22:16;3.60;;;1.10;;
10721;SDS011;5412;59.450;18.124;2022-10-17T05:24:42;3.33;;;1.10;;
10721;SDS011;5412;59.450;18.124;2022-10-17T05:27:07;10.40;;;3.47;;
10721;SDS011;5412;59.450;18.124;2022-10-17T05:29:33;6.68;;;1.45;;
10721;SDS011;5412;59.450;18.124;2022-10-17T05:31:59;2.25;;;1.20;;
10721;SDS011;5412;59.450;18.124;2022-10-17T05:34:24;4.35;;;1.17;;
10721;SDS011;5412;59.450;18.124;2022-10-17T05:36:50;6.05;;;1.08;;
10721;SDS011;5412;59.450;18.124;2022-10-17T05:39:16;5.07;;;1.33;;
10721;SDS011;5412;59.450;18.124;2022-10-17T05:41:44;5.65;;;1.25;;
10721;SDS011;5412;59.450;18.124;2022-10-17T05:44:10;6.03;;;1.30;;
10721;SDS011;5412;59.450;18.124;2022-10-17T05:46:37;3.78;;;1.33;;
10721;SDS011;5412;59.450;18.124;2022-10-17T05:49:03;4.97;;;1.08;;
10721;SDS011;5412;59.450;18.124;2022-10-17T05:51:29;6.22;;;1.48;;
10721;SDS011;5412;59.450;18.124;2022-10-17T05:53:56;2.65;;;1.13;;
10721;SDS011;5412;59.450;18.124;2022-10-17T05:56:22;6.57;;;1.60;;
10721;SDS011;5412;59.450;18.124;2022-10-17T05:58:48;6.13;;;1.20;;
10721;SDS011;5412;59.450;18.124;2022-10-17T06:01:13;6.75;;;1.67;;
10721;SDS011;5412;59.450;18.124;2022-10-17T06:03:39;4.43;;;1.00;;
10721;SDS011;5412;59.450;18.124;2022-10-17T06:06:09;4.57;;;1.00;;
10721;SDS011;5412;59.450;18.124;2022-10-17T06:08:35;5.82;;;1.20;;
10721;SDS011;5412;59.450;18.124;2022-10-17T06:11:01;7.38;;;1.38;;
10721;SDS011;5412;59.450;18.124;2022-10-17T06:13:27;5.32;;;0.90;;
10721;SDS011;5412;59.450;18.124;2022-10-17T06:15:54;5.25;;;1.17;;
10721;SDS011;5412;59.450;18.124;2022-10-17T06:18:19;6.70;;;1.20;;
10721;SDS011;5412;59.450;18.124;2022-10-17T06:20:45;4.60;;;1.02;;
10721;SDS011;5412;59.450;18.124;2022-10-17T06:23:11;2.85;;;0.80;;
10721;SDS011;5412;59.450;18.124;2022-10-17T06:25:37;5.70;;;1.50;;
10721;SDS011;5412;59.450;18.124;2022-10-17T06:28:03;3.17;;;0.77;;
10721;SDS011;5412;59.450;18.124;2022-10-17T06:30:29;6.40;;;1.55;;
10721;SDS011;5412;59.450;18.124;2022-10-17T06:32:54;3.92;;;1.00;;
10721;SDS011;5412;59.450;18.124;2022-10-17T06:35:20;6.28;;;1.33;;
10721;SDS011;5412;59.450;18.124;2022-10-17T06:37:46;4.05;;;0.90;;
10721;SDS011;5412;59.450;18.124;2022-10-17T06:40:12;4.88;;;1.27;;
10721;SDS011;5412;59.450;18.124;2022-10-17T06:42:40;2.75;;;0.90;;
10721;SDS011;5412;59.450;18.124;2022-10-17T06:45:06;4.13;;;1.10;;
10721;SDS011;5412;59.450;18.124;2022-10-17T06:47:32;3.25;;;0.98;;
10721;SDS011;5412;59.450;18.124;2022-10-17T06:49:59;5.80;;;1.60;;
10721;SDS011;5412;59.450;18.124;2022-10-17T06:52:25;8.15;;;1.35;;
10721;SDS011;5412;59.450;18.124;2022-10-17T06:54:50;4.70;;;1.00;;
10721;SDS011;5412;59.450;18.124;2022-10-17T06:57:16;3.30;;;0.85;;
10721;SDS011;5412;59.450;18.124;2022-10-17T06:59:42;5.20;;;1.15;;
10721;SDS011;5412;59.450;18.124;2022-10-17T07:02:08;3.97;;;1.15;;
10721;SDS011;5412;59.450;18.124;2022-10-17T07:04:37;1.50;;;0.75;;
10721;SDS011;5412;59.450;18.124;2022-10-17T07:07:03;5.38;;;1.30;;
10721;SDS011;5412;59.450;18.124;2022-10-17T07:09:29;4.88;;;1.10;;
10721;SDS011;5412;59.450;18.124;2022-10-17T07:11:55;4.70;;;1.17;;
10721;SDS011;5412;59.450;18.124;2022-10-17T07:14:21;4.80;;;1.25;;
10721;SDS011;5412;59.450;18.124;2022-10-17T07:16:47;3.58;;;1.20;;
10721;SDS011;5412;59.450;18.124;2022-10-17T07:19:13;4.78;;;1.30;;
10721;SDS011;5412;59.450;18.124;2022-10-17T07:21:39;6.53;;;1.40;;
10721;SDS011;5412;59.450;18.124;2022-10-17T07:24:05;12.30;;;1.85;;
10721;SDS011;5412;59.450;18.124;2022-10-17T07:26:31;9.95;;;1.55;;
10721;SDS011;5412;59.450;18.124;2022-10-17T07:28:57;2.92;;;1.08;;
10721;SDS011;5412;59.450;18.124;2022-10-17T07:31:23;3.03;;;1.13;;
10721;SDS011;5412;59.450;18.124;2022-10-17T07:33:49;7.78;;;1.30;;
10721;SDS011;5412;59.450;18.124;2022-10-17T07:36:15;3.30;;;0.90;;
10721;SDS011;5412;59.450;18.124;2022-10-17T07:38:42;4.13;;;1.30;;
10721;SDS011;5412;59.450;18.124;2022-10-17T07:41:08;3.85;;;1.25;;
10721;SDS011;5412;59.450;18.124;2022-10-17T07:43:35;4.50;;;1.30;;
10721;SDS011;5412;59.450;18.124;2022-10-17T07:46:02;8.10;;;1.48;;
10721;SDS011;5412;59.450;18.124;2022-10-17T07:48:29;6.10;;;1.17;;
10721;SDS011;5412;59.450;18.124;2022-10-17T07:50:55;5.32;;;0.90;;
10721;SDS011;5412;59.450;18.124;2022-10-17T07:53:21;4.75;;;0.95;;
10721;SDS011;5412;59.450;18.124;2022-10-17T07:55:46;5.93;;;1.25;;
10721;SDS011;5412;59.450;18.124;2022-10-17T07:58:13;3.45;;;0.93;;
10721;SDS011;5412;59.450;18.124;2022-10-17T08:00:39;8.10;;;1.08;;
10721;SDS011;5412;59.450;18.124;2022-10-17T08:03:05;5.50;;;0.95;;
10721;SDS011;5412;59.450;18.124;2022-10-17T08:05:32;2.90;;;1.27;;
10721;SDS011;5412;59.450;18.124;2022-10-17T08:07:58;3.10;;;1.00;;
10721;SDS011;5412;59.450;18.124;2022-10-17T08:10:24;3.17;;;1.08;;
10721;SDS011;5412;59.450;18.124;2022-10-17T08:12:54;4.88;;;0.93;;
10721;SDS011;5412;59.450;18.124;2022-10-17T08:15:21;3.42;;;1.00;;
10721;SDS011;5412;59.450;18.124;2022-10-17T08:17:47;9.93;;;2.15;;
10721;SDS011;5412;59.450;18.124;2022-10-17T08:20:13;7.10;;;1.50;;
10721;SDS011;5412;59.450;18.124;2022-10-17T08:22:39;3.60;;;1.00;;
10721;SDS011;5412;59.450;18.124;2022-10-17T08:25:05;4.00;;;1.25;;
10721;SDS011;5412;59.450;18.124;2022-10-17T08:27:32;9.80;;;1.80;;
10721;SDS011;5412;59.450;18.124;2022-10-17T08:29:58;7.85;;;2.13;;
10721;SDS011;5412;59.450;18.124;2022-10-17T08:32:24;8.57;;;1.45;;
10721;SDS011;5412;59.450;18.124;2022-10-17T08:34:52;8.13;;;1.73;;
10721;SDS011;5412;59.450;18.124;2022-10-17T08:37:18;4.38;;;1.00;;
10721;SDS011;5412;59.450;18.124;2022-10-17T08:39:44;5.43;;;1.10;;
10721;SDS011;5412;59.450;18.124;2022-10-17T08:42:25;9.82;;;1.10;;
10721;SDS011;5412;59.450;18.124;2022-10-17T08:47:42;6.63;;;1.17;;
10721;SDS011;5412;59.450;18.124;2022-10-17T08:50:12;5.40;;;1.23;;
10721;SDS011;5412;59.450;18.124;2022-10-17T08:52:50;4.35;;;1.15;;
10721;SDS011;5412;59.450;18.124;2022-10-17T08:55:39;6.43;;;1.50;;
10721;SDS011;5412;59.450;18.124;2022-10-17T08:58:14;3.05;;;1.50;;
10721;SDS011;5412;59.450;18.124;2022-10-17T09:00:44;4.00;;;1.13;;
10721;SDS011;5412;59.450;18.124;2022-10-17T09:20:19;5.68;;;1.10;;
10721;SDS011;5412;59.450;18.124;2022-10-17T09:22:54;7.32;;;1.40;;
10721;SDS011;5412;59.450;18.124;2022-10-17T09:25:26;4.05;;;0.90;;
10721;SDS011;5412;59.450;18.124;2022-10-17T09:27:55;5.97;;;1.23;;
10721;SDS011;5412;59.450;18.124;2022-10-17T09:33:27;4.70;;;1.33;;
10721;SDS011;5412;59.450;18.124;2022-10-17T09:36:00;6.13;;;1.48;;
10721;SDS011;5412;59.450;18.124;2022-10-17T09:38:38;3.85;;;1.33;;
10721;SDS011;5412;59.450;18.124;2022-10-17T09:41:06;5.03;;;1.33;;
10721;SDS011;5412;59.450;18.124;2022-10-17T09:43:39;2.30;;;0.73;;
10721;SDS011;5412;59.450;18.124;2022-10-17T09:46:10;6.97;;;1.20;;
10721;SDS011;5412;59.450;18.124;2022-10-17T09:48:53;3.63;;;1.33;;
10721;SDS011;5412;59.450;18.124;2022-10-17T09:51:39;4.00;;;0.98;;
10721;SDS011;5412;59.450;18.124;2022-10-17T09:54:12;3.50;;;1.20;;
10721;SDS011;5412;59.450;18.124;2022-10-17T09:56:55;6.45;;;1.45;;
10721;SDS011;5412;59.450;18.124;2022-10-17T10:07:21;2.78;;;1.15;;
10721;SDS011;5412;59.450;18.124;2022-10-17T10:09:49;3.67;;;1.15;;
10721;SDS011;5412;59.450;18.124;2022-10-17T10:12:35;9.40;;;1.30;;
10721;SDS011;5412;59.450;18.124;2022-10-17T10:18:02;4.93;;;1.27;;
10721;SDS011;5412;59.450;18.124;2022-10-17T10:28:49;3.80;;;1.10;;
10721;SDS011;5412;59.450;18.124;2022-10-17T10:31:23;2.38;;;1.33;;
10721;SDS011;5412;59.450;18.124;2022-10-17T10:34:02;3.28;;;1.05;;
10721;SDS011;5412;59.450;18.124;2022-10-17T10:42:23;4.00;;;1.20;;
10721;SDS011;5412;59.450;18.124;2022-10-17T10:44:55;3.33;;;1.17;;
10721;SDS011;5412;59.450;18.124;2022-10-17T10:56:05;3.25;;;0.98;;
10721;SDS011;5412;59.450;18.124;2022-10-17T11:00:59;4.10;;;1.10;;
10721;SDS011;5412;59.450;18.124;2022-10-17T11:04:18;6.28;;;1.05;;
10721;SDS011;5412;59.450;18.124;2022-10-17T11:06:52;3.42;;;0.75;;
10721;SDS011;5412;59.450;18.124;2022-10-17T11:12:34;7.53;;;0.98;;
10721;SDS011;5412;59.450;18.124;2022-10-17T11:15:47;3.22;;;0.70;;
10721;SDS011;5412;59.450;18.124;2022-10-17T11:18:48;2.78;;;0.70;;
10721;SDS011;5412;59.450;18.124;2022-10-17T11:24:22;2.85;;;0.90;;
10721;SDS011;5412;59.450;18.124;2022-10-17T11:27:03;1.52;;;0.60;;
10721;SDS011;5412;59.450;18.124;2022-10-17T11:29:32;3.90;;;0.90;;
10721;SDS011;5412;59.450;18.124;2022-10-17T11:32:02;6.63;;;0.68;;
10721;SDS011;5412;59.450;18.124;2022-10-17T11:34:38;2.83;;;0.88;;
10721;SDS011;5412;59.450;18.124;2022-10-17T11:37:13;2.90;;;0.98;;
10721;SDS011;5412;59.450;18.124;2022-10-17T11:39:47;2.17;;;0.80;;
10721;SDS011;5412;59.450;18.124;2022-10-17T11:42:32;2.40;;;1.10;;
10721;SDS011;5412;59.450;18.124;2022-10-17T11:45:10;5.47;;;0.90;;
10721;SDS011;5412;59.450;18.124;2022-10-17T11:47:49;2.58;;;0.85;;
10721;SDS011;5412;59.450;18.124;2022-10-17T11:50:23;1.67;;;0.70;;
10721;SDS011;5412;59.450;18.124;2022-10-17T11:53:05;2.78;;;0.60;;
10721;SDS011;5412;59.450;18.124;2022-10-17T11:55:36;1.35;;;0.70;;
10721;SDS011;5412;59.450;18.124;2022-10-17T12:03:38;6.05;;;0.80;;
10721;SDS011;5412;59.450;18.124;2022-10-17T12:09:31;2.97;;;0.85;;
10721;SDS011;5412;59.450;18.124;2022-10-17T12:12:10;1.98;;;1.05;;
10721;SDS011;5412;59.450;18.124;2022-10-17T12:14:47;3.63;;;0.82;;
10721;SDS011;5412;59.450;18.124;2022-10-17T12:17:29;4.43;;;0.80;;
10721;SDS011;5412;59.450;18.124;2022-10-17T12:25:34;5.80;;;1.00;;
10721;SDS011;5412;59.450;18.124;2022-10-17T12:28:13;4.18;;;1.38;;
10721;SDS011;5412;59.450;18.124;2022-10-17T12:33:18;3.15;;;0.90;;
10721;SDS011;5412;59.450;18.124;2022-10-17T12:35:48;3.80;;;0.90;;
10721;SDS011;5412;59.450;18.124;2022-10-17T12:38:19;1.92;;;0.80;;
10721;SDS011;5412;59.450;18.124;2022-10-17T12:40:47;3.53;;;1.00;;
10721;SDS011;5412;59.450;18.124;2022-10-17T12:58:59;4.00;;;1.00;;
10721;SDS011;5412;59.450;18.124;2022-10-17T13:01:31;3.42;;;1.20;;
10721;SDS011;5412;59.450;18.124;2022-10-17T13:04:00;4.90;;;1.08;;
10721;SDS011;5412;59.450;18.124;2022-10-17T13:06:30;3.25;;;1.15;;
10721;SDS011;5412;59.450;18.124;2022-10-17T13:09:04;4.43;;;1.15;;
10721;SDS011;5412;59.450;18.124;2022-10-17T13:11:35;5.22;;;1.30;;
10721;SDS011;5412;59.450;18.124;2022-10-17T13:14:08;6.03;;;0.90;;
10721;SDS011;5412;59.450;18.124;2022-10-17T13:16:43;3.50;;;1.13;;
10721;SDS011;5412;59.450;18.124;2022-10-17T13:19:19;5.13;;;1.10;;
10721;SDS011;5412;59.450;18.124;2022-10-17T13:21:48;4.07;;;1.05;;
10721;SDS011;5412;59.450;18.124;2022-10-17T13:24:35;7.18;;;1.38;;
10721;SDS011;5412;59.450;18.124;2022-10-17T13:27:02;7.97;;;1.40;;
10721;SDS011;5412;59.450;18.124;2022-10-17T13:29:30;6.13;;;1.42;;
10721;SDS011;5412;59.450;18.124;2022-10-17T13:32:00;3.95;;;0.90;;
10721;SDS011;5412;59.450;18.124;2022-10-17T13:34:28;5.75;;;1.05;;
10721;SDS011;5412;59.450;18.124;2022-10-17T13:36:56;5.45;;;1.10;;
10721;SDS011;5412;59.450;18.124;2022-10-17T13:39:33;4.25;;;1.00;;
10721;SDS011;5412;59.450;18.124;2022-10-17T13:42:04;3.90;;;1.35;;
10721;SDS011;5412;59.450;18.124;2022-10-17T13:44:31;4.93;;;1.45;;
10721;SDS011;5412;59.450;18.124;2022-10-17T13:46:58;5.75;;;1.10;;
10721;SDS011;5412;59.450;18.124;2022-10-17T13:49:38;5.78;;;1.30;;
10721;SDS011;5412;59.450;18.124;2022-10-17T13:52:06;5.70;;;1.35;;
10721;SDS011;5412;59.450;18.124;2022-10-17T13:54:42;3.80;;;1.30;;
10721;SDS011;5412;59.450;18.124;2022-10-17T13:57:26;6.07;;;1.63;;
10721;SDS011;5412;59.450;18.124;2022-10-17T14:00:00;7.68;;;1.80;;
10721;SDS011;5412;59.450;18.124;2022-10-17T14:02:30;5.95;;;1.48;;
10721;SDS011;5412;59.450;18.124;2022-10-17T14:05:10;8.85;;;1.35;;
10721;SDS011;5412;59.450;18.124;2022-10-17T14:07:51;7.88;;;1.60;;
10721;SDS011;5412;59.450;18.124;2022-10-17T14:10:23;5.72;;;1.75;;
10721;SDS011;5412;59.450;18.124;2022-10-17T14:12:52;5.63;;;1.58;;
10721;SDS011;5412;59.450;18.124;2022-10-17T14:15:20;5.15;;;1.40;;
10721;SDS011;5412;59.450;18.124;2022-10-17T14:17:53;6.38;;;1.75;;
10721;SDS011;5412;59.450;18.124;2022-10-17T14:20:21;12.90;;;1.77;;
10721;SDS011;5412;59.450;18.124;2022-10-17T14:22:48;7.43;;;1.60;;
10721;SDS011;5412;59.450;18.124;2022-10-17T14:25:33;7.97;;;1.48;;
10721;SDS011;5412;59.450;18.124;2022-10-17T14:30:37;11.15;;;1.60;;
10721;SDS011;5412;59.450;18.124;2022-10-17T14:33:05;6.13;;;1.80;;
10721;SDS011;5412;59.450;18.124;2022-10-17T14:35:33;7.63;;;1.83;;
10721;SDS011;5412;59.450;18.124;2022-10-17T14:37:59;10.32;;;1.70;;
10721;SDS011;5412;59.450;18.124;2022-10-17T14:40:28;6.15;;;2.03;;
10721;SDS011;5412;59.450;18.124;2022-10-17T14:42:57;8.23;;;1.60;;
10721;SDS011;5412;59.450;18.124;2022-10-17T14:48:05;7.18;;;2.05;;
10721;SDS011;5412;59.450;18.124;2022-10-17T14:50:36;5.43;;;1.30;;
10721;SDS011;5412;59.450;18.124;2022-10-17T14:55:38;7.95;;;1.52;;
10721;SDS011;5412;59.450;18.124;2022-10-17T14:58:17;8.25;;;1.50;;
10721;SDS011;5412;59.450;18.124;2022-10-17T15:00:48;10.40;;;1.60;;
10721;SDS011;5412;59.450;18.124;2022-10-17T15:03:13;10.63;;;2.53;;
10721;SDS011;5412;59.450;18.124;2022-10-17T15:05:39;5.88;;;1.77;;
10721;SDS011;5412;59.450;18.124;2022-10-17T15:08:15;11.65;;;1.83;;
10721;SDS011;5412;59.450;18.124;2022-10-17T15:10:42;10.48;;;1.67;;
10721;SDS011;5412;59.450;18.124;2022-10-17T15:13:09;8.20;;;1.88;;
10721;SDS011;5412;59.450;18.124;2022-10-17T15:15:36;7.28;;;1.70;;
10721;SDS011;5412;59.450;18.124;2022-10-17T15:18:03;11.43;;;1.85;;
10721;SDS011;5412;59.450;18.124;2022-10-17T15:20:29;8.38;;;1.48;;
10721;SDS011;5412;59.450;18.124;2022-10-17T15:22:56;5.43;;;1.85;;
10721;SDS011;5412;59.450;18.124;2022-10-17T15:25:24;11.15;;;2.08;;
10721;SDS011;5412;59.450;18.124;2022-10-17T15:27:50;6.63;;;2.22;;
10721;SDS011;5412;59.450;18.124;2022-10-17T15:32:42;11.45;;;2.72;;
10721;SDS011;5412;59.450;18.124;2022-10-17T15:35:07;7.85;;;1.88;;
10721;SDS011;5412;59.450;18.124;2022-10-17T15:37:33;6.78;;;2.53;;
10721;SDS011;5412;59.450;18.124;2022-10-17T15:40:01;9.25;;;2.78;;
10721;SDS011;5412;59.450;18.124;2022-10-17T15:42:28;9.25;;;1.75;;
10721;SDS011;5412;59.450;18.124;2022-10-17T15:44:54;9.60;;;2.13;;
10721;SDS011;5412;59.450;18.124;2022-10-17T15:47:22;4.13;;;1.55;;
10721;SDS011;5412;59.450;18.124;2022-10-17T15:49:57;7.28;;;2.03;;
10721;SDS011;5412;59.450;18.124;2022-10-17T15:52:24;7.00;;;1.98;;
10721;SDS011;5412;59.450;18.124;2022-10-17T15:54:50;7.45;;;2.30;;
10721;SDS011;5412;59.450;18.124;2022-10-17T15:57:19;5.78;;;1.50;;
10721;SDS011;5412;59.450;18.124;2022-10-17T15:59:48;14.05;;;1.90;;
10721;SDS011;5412;59.450;18.124;2022-10-17T16:02:16;7.55;;;1.77;;
10721;SDS011;5412;59.450;18.124;2022-10-17T16:04:43;7.82;;;1.65;;
10721;SDS011;5412;59.450;18.124;2022-10-17T16:07:09;9.45;;;1.88;;
10721;SDS011;5412;59.450;18.124;2022-10-17T16:09:35;8.65;;;2.67;;
10721;SDS011;5412;59.450;18.124;2022-10-17T16:12:04;8.48;;;1.80;;
10721;SDS011;5412;59.450;18.124;2022-10-17T16:14:34;9.43;;;2.03;;
10721;SDS011;5412;59.450;18.124;2022-10-17T16:17:00;7.18;;;1.45;;
10721;SDS011;5412;59.450;18.124;2022-10-17T16:19:26;11.13;;;1.98;;
10721;SDS011;5412;59.450;18.124;2022-10-17T16:21:54;5.70;;;1.58;;
10721;SDS011;5412;59.450;18.124;2022-10-17T16:24:25;7.35;;;2.05;;
10721;SDS011;5412;59.450;18.124;2022-10-17T16:26:51;11.40;;;2.50;;
10721;SDS011;5412;59.450;18.124;2022-10-17T16:29:16;5.55;;;1.75;;
10721;SDS011;5412;59.450;18.124;2022-10-17T16:31:43;7.47;;;2.13;;
10721;SDS011;5412;59.450;18.124;2022-10-17T16:34:13;10.82;;;2.00;;
10721;SDS011;5412;59.450;18.124;2022-10-17T16:36:39;10.25;;;1.83;;
10721;SDS011;5412;59.450;18.124;2022-10-17T16:39:06;7.10;;;1.73;;
10721;SDS011;5412;59.450;18.124;2022-10-17T16:41:33;10.68;;;1.95;;
10721;SDS011;5412;59.450;18.124;2022-10-17T16:44:05;13.02;;;2.65;;
10721;SDS011;5412;59.450;18.124;2022-10-17T16:46:32;8.98;;;2.10;;
10721;SDS011;5412;59.450;18.124;2022-10-17T16:49:02;6.97;;;2.30;;
10721;SDS011;5412;59.450;18.124;2022-10-17T16:51:31;9.23;;;1.85;;
10721;SDS011;5412;59.450;18.124;2022-10-17T16:53:59;8.68;;;2.22;;
10721;SDS011;5412;59.450;18.124;2022-10-17T16:56:25;10.95;;;1.80;;
10721;SDS011;5412;59.450;18.124;2022-10-17T16:58:56;4.38;;;1.73;;
10721;SDS011;5412;59.450;18.124;2022-10-17T17:01:23;13.13;;;2.50;;
10721;SDS011;5412;59.450;18.124;2022-10-17T17:03:51;10.45;;;2.30;;
10721;SDS011;5412;59.450;18.124;2022-10-17T17:06:22;9.50;;;2.20;;
10721;SDS011;5412;59.450;18.124;2022-10-17T17:08:50;11.60;;;1.83;;
10721;SDS011;5412;59.450;18.124;2022-10-17T17:11:17;8.57;;;1.73;;
10721;SDS011;5412;59.450;18.124;2022-10-17T17:13:44;10.68;;;2.35;;
10721;SDS011;5412;59.450;18.124;2022-10-17T17:16:14;12.10;;;2.05;;
10721;SDS011;5412;59.450;18.124;2022-10-17T17:18:47;9.15;;;2.03;;
10721;SDS011;5412;59.450;18.124;2022-10-17T17:21:17;12.40;;;2.45;;
10721;SDS011;5412;59.450;18.124;2022-10-17T17:23:43;10.60;;;2.17;;